Time;durP1;ratioP1;P1;durP2;ratioP2;P2;SDS_P1;SDS_P2;PMS_P1;PMS_P2;Temp;Humidity;BMP_temperature;BMP_pressure;BME280_temperature;BME280_humidity;BME280_pressure;Samples;Min_cycle;Max_cycle;Signal;HPM_P1;HPM_P2
2023/08/07 00:02:06;;;;;;;0.70;0.70;;;;;;;24.75;51.30;97424.72;5051686;28;20215;-57
2023/08/07 00:04:32;;;;;;;0.40;0.40;;;;;;;24.91;51.48;97466.47;5051549;28;20613;-57
2023/08/07 00:06:57;;;;;;;2.72;0.50;;;;;;;24.72;52.36;97467.47;5051434;28;20211;-57
2023/08/07 00:09:23;;;;;;;0.68;0.65;;;;;;;24.65;52.76;97453.47;5066125;28;20184;-57
2023/08/07 00:11:48;;;;;;;0.70;0.70;;;;;;;24.53;53.70;97449.06;5074506;28;20180;-57
2023/08/07 00:14:14;;;;;;;0.73;0.50;;;;;;;24.28;53.50;97413.88;5112082;28;20183;-56
2023/08/07 00:16:41;;;;;;;0.70;0.50;;;;;;;24.47;55.11;97456.03;5112012;28;20685;-57
2023/08/07 00:19:06;;;;;;;0.60;0.47;;;;;;;24.21;55.34;97421.84;5111816;28;20256;-57
2023/08/07 00:21:31;;;;;;;0.40;0.40;;;;;;;24.32;56.02;97450.25;5111985;28;20744;-57
2023/08/07 00:23:57;;;;;;;1.45;0.50;;;;;;;24.18;56.16;97440.78;5111850;28;20309;-57
2023/08/07 00:26:25;;;;;;;0.80;0.47;;;;;;;23.85;58.87;97445.41;5111893;28;20183;-57
2023/08/07 00:28:50;;;;;;;0.50;0.50;;;;;;;23.42;59.55;97417.16;5112058;28;20183;-57
2023/08/07 00:31:16;;;;;;;0.93;0.52;;;;;;;23.08;62.46;97411.38;5114282;28;20303;-57
2023/08/07 00:33:41;;;;;;;1.27;0.70;;;;;;;22.81;63.62;97410.63;5114244;28;20546;-57
2023/08/07 00:36:07;;;;;;;0.40;0.40;;;;;;;22.90;64.31;97443.69;5114137;28;20590;-57
2023/08/07 00:38:32;;;;;;;0.70;0.70;;;;;;;22.68;66.10;97423.03;5114000;28;20231;-57
2023/08/07 00:40:59;;;;;;;0.57;0.57;;;;;;;22.55;67.77;97430.94;5114181;28;20176;-57
2023/08/07 00:43:25;;;;;;;0.77;0.75;;;;;;;22.27;68.67;97402.09;5114055;28;20179;-56
2023/08/07 00:45:50;;;;;;;1.35;0.45;;;;;;;22.58;69.55;97446.34;5113993;28;20223;-57
2023/08/07 00:48:17;;;;;;;1.85;0.88;;;;;;;22.68;68.77;97446.75;5113935;28;20171;-57
2023/08/07 00:50:45;;;;;;;2.15;0.80;;;;;;;22.21;71.60;97425.81;5113756;28;20171;-56
2023/08/07 00:53:11;;;;;;;4.47;1.00;;;;;;;22.23;70.58;97419.34;5114084;28;20223;-56
2023/08/07 00:55:37;;;;;;;1.33;0.88;;;;;;;22.39;71.46;97420.75;5113456;28;20369;-56
2023/08/07 00:58:02;;;;;;;1.92;0.98;;;;;;;22.42;71.74;97441.44;5113683;28;20237;-56
2023/08/07 01:00:28;;;;;;;0.88;0.88;;;;;;;22.11;73.61;97428.84;5113735;27;20516;-57
2023/08/07 01:02:56;;;;;;;1.20;0.80;;;;;;;22.24;73.38;97430.69;5113654;28;20209;-57
2023/08/07 01:05:24;;;;;;;1.00;1.00;;;;;;;22.13;73.68;97429.47;5113359;28;20175;-57
2023/08/07 01:07:54;;;;;;;2.20;0.70;;;;;;;22.20;74.14;97442.66;5113724;28;20279;-56
2023/08/07 01:10:39;;;;;;;0.90;0.90;;;;;;;21.89;75.64;97430.03;5113437;28;20235;-57
2023/08/07 01:13:19;;;;;;;1.52;0.82;;;;;;;22.07;75.32;97469.78;5113049;28;20263;-56
2023/08/07 01:15:46;;;;;;;0.90;0.90;;;;;;;22.21;74.81;97470.63;5113412;28;20179;-57
2023/08/07 01:18:13;;;;;;;0.95;0.90;;;;;;;22.00;75.38;97476.03;5112953;28;20506;-57
2023/08/07 01:20:38;;;;;;;1.60;0.70;;;;;;;21.67;75.66;97438.25;5113218;28;20168;-56
2023/08/07 01:23:04;;;;;;;1.33;1.05;;;;;;;21.76;76.62;97466.03;5113265;28;20182;-57
2023/08/07 01:25:30;;;;;;;0.88;0.88;;;;;;;21.78;75.35;97446.41;5113245;28;20268;-57
2023/08/07 01:28:28;;;;;;;2.42;0.70;;;;;;;21.92;76.15;97494.66;5113203;28;20266;-57
2023/08/07 01:30:59;;;;;;;0.90;0.80;;;;;;;21.50;78.15;97450.13;5110020;28;20598;-57
2023/08/07 01:33:32;;;;;;;0.90;0.80;;;;;;;21.85;76.70;97493.84;5113178;28;20214;-57
2023/08/07 01:36:00;;;;;;;0.75;0.70;;;;;;;21.87;76.67;97489.19;5113093;28;20709;-56
2023/08/07 01:38:27;;;;;;;0.50;0.50;;;;;;;21.56;76.60;97480.94;5112864;28;20203;-56
2023/08/07 01:40:53;;;;;;;0.93;0.70;;;;;;;21.34;78.02;97460.97;5113204;28;20481;-56
2023/08/07 01:43:19;;;;;;;0.63;0.60;;;;;;;21.38;78.53;97486.69;5112886;28;20633;-57
2023/08/07 01:45:45;;;;;;;1.73;0.60;;;;;;;21.33;78.45;97475.16;5112839;28;20368;-56
2023/08/07 01:48:11;;;;;;;0.93;0.77;;;;;;;21.26;80.12;97469.84;5112758;28;20175;-56
2023/08/07 01:50:38;;;;;;;0.90;0.65;;;;;;;21.35;81.54;97488.91;5112707;28;20183;-56
2023/08/07 01:53:04;;;;;;;1.65;1.33;;;;;;;20.96;84.25;97463.19;5112686;28;20228;-56
2023/08/07 01:55:29;;;;;;;1.17;1.17;;;;;;;21.04;84.77;97480.63;5112605;28;20183;-57
2023/08/07 01:57:55;;;;;;;1.92;1.33;;;;;;;20.94;86.84;97472.28;5112497;28;20199;-56
2023/08/07 02:00:20;;;;;;;1.75;1.25;;;;;;;20.97;86.11;97464.81;5112507;28;20286;-56
2023/08/07 02:02:46;;;;;;;2.40;1.17;;;;;;;20.92;87.15;97476.91;5112446;28;20240;-56
2023/08/07 02:05:12;;;;;;;1.30;1.20;;;;;;;21.05;85.13;97471.75;5112379;28;20780;-56
2023/08/07 02:07:37;;;;;;;0.80;0.80;;;;;;;21.19;83.68;97507.63;5112059;27;20186;-56
2023/08/07 02:10:03;;;;;;;2.78;1.00;;;;;;;21.07;84.51;97496.84;5112393;28;20199;-57
2023/08/07 02:12:31;;;;;;;1.00;0.98;;;;;;;21.07;83.37;97488.97;5112022;28;20178;-57
2023/08/07 02:14:58;;;;;;;0.70;0.70;;;;;;;21.09;83.52;97505.34;5112114;28;20663;-57
2023/08/07 02:17:25;;;;;;;1.40;0.98;;;;;;;21.07;84.39;97528.41;5112096;28;20266;-57
2023/08/07 02:19:50;;;;;;;0.80;0.80;;;;;;;21.01;82.72;97486.28;5112125;28;20234;-57
2023/08/07 02:22:15;;;;;;;2.80;1.15;;;;;;;21.08;85.51;97521.31;5112145;28;20199;-57
2023/08/07 02:24:41;;;;;;;1.42;1.33;;;;;;;21.01;86.52;97512.56;5111246;28;20277;-57
2023/08/07 02:27:06;;;;;;;6.50;6.00;;;;;;;20.99;90.61;97517.22;5111649;28;20187;-57
2023/08/07 02:29:34;;;;;;;2.20;2.00;;;;;;;21.00;91.78;97513.59;5112080;28;20181;-57
2023/08/07 02:32:00;;;;;;;1.90;1.77;;;;;;;21.13;92.48;97542.59;5112004;28;20175;-57
2023/08/07 02:34:25;;;;;;;3.35;2.20;;;;;;;21.12;92.11;97540.97;5111971;28;20190;-57
2023/08/07 02:36:51;;;;;;;2.97;1.80;;;;;;;20.94;91.78;97503.84;5111954;28;20167;-57
2023/08/07 02:39:16;;;;;;;2.95;1.85;;;;;;;20.90;92.53;97505.22;5111805;28;20260;-57
2023/08/07 02:41:42;;;;;;;1.90;1.80;;;;;;;21.06;93.02;97544.38;5111834;28;20203;-57
2023/08/07 02:44:07;;;;;;;1.70;1.60;;;;;;;20.83;92.64;97505.16;5111525;28;20548;-57
2023/08/07 02:46:35;;;;;;;3.08;1.73;;;;;;;20.97;91.38;97535.03;5111964;28;20171;-57
2023/08/07 02:49:01;;;;;;;1.67;1.58;;;;;;;20.69;91.28;97523.63;5111692;28;20187;-57
2023/08/07 02:51:26;;;;;;;5.13;1.30;;;;;;;20.69;91.11;97534.16;5111638;28;20235;-57
2023/08/07 02:53:52;;;;;;;1.58;1.48;;;;;;;20.30;93.16;97518.00;5111643;28;20167;-57
2023/08/07 02:56:17;;;;;;;1.92;1.05;;;;;;;20.57;92.03;97551.44;5111591;28;20254;-57
2023/08/07 02:58:42;;;;;;;0.90;0.90;;;;;;;20.41;91.76;97514.88;5111485;28;20205;-57
2023/08/07 03:01:08;;;;;;;1.40;1.30;;;;;;;20.45;92.32;97531.91;5111525;28;20613;-57
2023/08/07 03:03:34;;;;;;;2.35;1.90;;;;;;;20.51;92.85;97528.53;5111467;28;20183;-57
2023/08/07 03:05:59;;;;;;;1.98;1.40;;;;;;;20.77;92.38;97568.19;5111343;28;20174;-57
2023/08/07 03:08:25;;;;;;;2.08;1.35;;;;;;;20.67;93.15;97555.38;5111558;28;20335;-57
2023/08/07 03:10:58;;;;;;;1.88;1.77;;;;;;;20.64;95.13;97549.66;5111733;28;20178;-57
2023/08/07 03:13:25;;;;;;;2.35;1.88;;;;;;;20.64;94.84;97544.41;5111493;28;20170;-57
2023/08/07 03:15:58;;;;;;;2.15;1.88;;;;;;;20.37;97.21;97559.13;5111367;28;20175;-57
2023/08/07 03:18:23;;;;;;;1.85;1.75;;;;;;;20.07;98.05;97523.44;5111293;28;20203;-57
2023/08/07 03:20:48;;;;;;;1.80;1.63;;;;;;;20.13;98.05;97527.13;5108653;28;20205;-57
2023/08/07 03:23:14;;;;;;;2.13;1.75;;;;;;;20.27;97.85;97557.75;5109130;28;20772;-57
2023/08/07 03:25:39;;;;;;;2.30;1.73;;;;;;;20.07;97.55;97527.84;5108731;28;20187;-57
2023/08/07 03:28:05;;;;;;;2.08;1.80;;;;;;;20.26;98.68;97564.84;5108829;28;20175;-57
2023/08/07 03:30:30;;;;;;;1.63;1.52;;;;;;;20.10;99.03;97569.53;5108772;28;20538;-57
2023/08/07 03:32:55;;;;;;;1.95;1.85;;;;;;;19.92;97.66;97550.66;5108767;28;20269;-57
2023/08/07 03:35:21;;;;;;;1.67;1.58;;;;;;;19.89;98.26;97545.78;5109985;28;20175;-57
2023/08/07 03:37:46;;;;;;;2.05;1.30;;;;;;;20.19;97.08;97563.97;5112817;28;20179;-57
2023/08/07 03:40:12;;;;;;;1.67;1.58;;;;;;;20.31;95.55;97586.13;5112761;28;20653;-57
2023/08/07 03:42:37;;;;;;;1.35;1.25;;;;;;;20.19;96.18;97568.41;5112846;28;20179;-57
2023/08/07 03:45:03;;;;;;;2.17;1.40;;;;;;;20.32;95.34;97582.50;5112673;28;20192;-57
2023/08/07 03:47:28;;;;;;;1.25;1.15;;;;;;;20.40;90.34;97582.38;5112918;28;20179;-57
2023/08/07 03:49:53;;;;;;;1.52;0.80;;;;;;;20.45;87.89;97564.25;5112650;28;20265;-57
2023/08/07 03:52:19;;;;;;;2.92;1.02;;;;;;;20.56;87.06;97561.13;5112422;28;20207;-57
2023/08/07 03:54:44;;;;;;;1.15;1.00;;;;;;;20.97;85.15;97590.25;5112425;28;20187;-57
2023/08/07 03:57:12;;;;;;;1.83;1.17;;;;;;;21.07;85.88;97593.34;5112551;28;20206;-57
2023/08/07 03:59:38;;;;;;;1.60;1.50;;;;;;;21.09;87.79;97570.31;5114817;28;20199;-57
2023/08/07 04:02:04;;;;;;;2.10;1.98;;;;;;;21.24;88.36;97600.78;5114874;28;20641;-57
2023/08/07 04:04:29;;;;;;;1.90;1.80;;;;;;;20.97;88.79;97570.00;5114762;28;20192;-57
2023/08/07 04:06:55;;;;;;;1.70;1.60;;;;;;;20.93;89.51;97576.66;5114566;28;20194;-56
2023/08/07 04:09:20;;;;;;;1.63;1.40;;;;;;;20.92;88.87;97598.69;5114630;28;20330;-56
2023/08/07 04:11:46;;;;;;;1.20;1.13;;;;;;;20.88;83.51;97580.81;5114304;28;20265;-57
2023/08/07 04:14:11;;;;;;;2.35;1.65;;;;;;;20.82;88.33;97579.78;5114544;28;20263;-56
2023/08/07 04:16:37;;;;;;;1.50;1.40;;;;;;;20.83;88.73;97588.47;5114496;28;20174;-56
2023/08/07 04:19:02;;;;;;;1.52;1.42;;;;;;;20.65;89.42;97572.31;5114433;28;20256;-57
2023/08/07 04:21:29;;;;;;;1.52;1.42;;;;;;;20.75;89.63;97601.75;5114350;28;20558;-57
2023/08/07 04:23:55;;;;;;;2.97;1.88;;;;;;;20.65;89.51;97574.94;5114627;28;20199;-56
2023/08/07 04:26:20;;;;;;;2.10;1.75;;;;;;;20.95;90.63;97605.41;5113992;28;20267;-57
2023/08/07 04:28:46;;;;;;;1.92;1.83;;;;;;;20.92;87.85;97585.53;5113989;28;20174;-57
2023/08/07 04:31:11;;;;;;;1.95;1.80;;;;;;;21.25;88.15;97612.13;5113940;28;20168;-57
2023/08/07 04:33:36;;;;;;;1.95;1.73;;;;;;;21.31;87.48;97606.91;5114607;28;20183;-57
2023/08/07 04:36:02;;;;;;;1.80;1.70;;;;;;;21.41;87.46;97620.56;5114169;28;20650;-57
2023/08/07 04:38:27;;;;;;;4.45;2.15;;;;;;;21.30;86.88;97583.41;5113712;28;20671;-57
2023/08/07 04:40:53;;;;;;;1.80;1.70;;;;;;;21.58;84.10;97597.38;5114072;28;20622;-57
2023/08/07 04:43:22;;;;;;;1.42;1.33;;;;;;;21.68;82.35;97595.25;5114017;28;20179;-57
2023/08/07 04:45:48;;;;;;;1.30;1.30;;;;;;;21.61;80.93;97597.00;5113999;28;20171;-57
2023/08/07 04:48:14;;;;;;;1.77;1.67;;;;;;;21.65;82.22;97614.03;5113019;28;20586;-57
2023/08/07 04:50:41;;;;;;;1.35;1.35;;;;;;;21.65;82.98;97606.94;5114047;28;20171;-57
2023/08/07 04:53:06;;;;;;;2.17;1.98;;;;;;;21.29;84.10;97585.25;5114008;28;20175;-57
2023/08/07 04:55:32;;;;;;;2.03;1.92;;;;;;;21.30;86.50;97605.28;5114004;28;20186;-57
2023/08/07 04:57:58;;;;;;;4.05;2.10;;;;;;;21.28;85.98;97602.03;5113821;28;20243;-57
2023/08/07 05:00:23;;;;;;;4.10;2.08;;;;;;;21.51;84.57;97609.69;5110897;28;20211;-57
2023/08/07 05:02:49;;;;;;;2.72;1.52;;;;;;;21.73;83.04;97603.38;5098391;28;20566;-57
2023/08/07 05:05:15;;;;;;;1.80;1.70;;;;;;;21.57;83.39;97590.50;5093081;28;20172;-57
2023/08/07 05:07:41;;;;;;;2.67;1.70;;;;;;;21.97;81.57;97634.50;5104522;28;20190;-57
2023/08/07 05:10:10;;;;;;;1.80;1.63;;;;;;;21.91;80.77;97622.13;5093289;28;20174;-57
2023/08/07 05:12:36;;;;;;;5.32;2.30;;;;;;;21.90;81.60;97636.28;5093264;28;20263;-57
2023/08/07 05:15:01;;;;;;;2.13;1.80;;;;;;;21.93;77.39;97623.56;5093225;28;20195;-57
2023/08/07 05:17:27;;;;;;;1.40;1.30;;;;;;;22.21;73.41;97644.56;5093111;28;20184;-58
2023/08/07 05:19:52;;;;;;;1.77;1.50;;;;;;;22.18;72.67;97603.59;5092947;28;20286;-57
2023/08/07 05:22:18;;;;;;;1.40;1.30;;;;;;;22.54;69.01;97637.59;5092302;28;20202;-58
2023/08/07 05:24:44;;;;;;;2.10;1.38;;;;;;;22.56;72.68;97632.97;5092365;28;20176;-57
2023/08/07 05:27:11;;;;;;;1.35;1.35;;;;;;;22.69;68.47;97633.00;5092739;28;20168;-57
2023/08/07 05:29:43;;;;;;;2.33;1.33;;;;;;;22.86;67.38;97629.78;5092634;28;20248;-57
2023/08/07 05:32:09;;;;;;;1.20;1.20;;;;;;;23.21;65.43;97662.97;5092503;28;20176;-57
2023/08/07 05:34:35;;;;;;;1.40;1.30;;;;;;;23.16;65.14;97635.50;5092655;28;20203;-57
2023/08/07 05:37:00;;;;;;;1.73;1.23;;;;;;;23.50;64.19;97662.56;5092695;28;20332;-57
2023/08/07 05:39:26;;;;;;;1.48;1.25;;;;;;;23.48;63.83;97632.88;5092218;28;20210;-58
2023/08/07 05:41:53;;;;;;;1.33;1.30;;;;;;;23.66;62.32;97643.63;5092601;28;20232;-57
2023/08/07 05:44:19;;;;;;;1.55;1.45;;;;;;;23.84;61.92;97641.97;5092494;28;20175;-58
2023/08/07 05:46:44;;;;;;;1.45;1.38;;;;;;;23.88;61.80;97641.63;5092578;28;20172;-58
2023/08/07 05:49:10;;;;;;;1.20;1.20;;;;;;;23.86;61.60;97618.78;5092307;28;20172;-57
2023/08/07 05:51:35;;;;;;;1.15;1.15;;;;;;;24.03;61.39;97643.00;5092366;28;20179;-58
2023/08/07 05:54:01;;;;;;;1.70;1.60;;;;;;;24.17;60.93;97664.91;5092287;28;20514;-57
2023/08/07 05:56:26;;;;;;;1.25;1.25;;;;;;;24.18;60.15;97662.03;5092355;28;20176;-57
2023/08/07 05:58:51;;;;;;;1.40;1.30;;;;;;;24.12;59.98;97646.22;5092154;28;20245;-57
2023/08/07 06:01:17;;;;;;;1.48;1.38;;;;;;;24.06;60.22;97639.13;5092045;28;20266;-57
2023/08/07 06:03:43;;;;;;;1.27;1.25;;;;;;;24.24;60.20;97658.56;5092158;28;20179;-58
2023/08/07 06:06:08;;;;;;;2.53;1.17;;;;;;;24.25;60.10;97657.53;5096959;28;20183;-58
2023/08/07 06:08:34;;;;;;;1.60;1.50;;;;;;;24.14;59.65;97627.28;5112364;28;20175;-57
2023/08/07 06:11:03;;;;;;;1.75;1.38;;;;;;;24.18;60.10;97649.66;5112197;28;20167;-58
2023/08/07 06:13:29;;;;;;;1.45;1.30;;;;;;;24.41;60.54;97668.47;5112295;28;20214;-58
2023/08/07 06:15:54;;;;;;;1.50;1.40;;;;;;;24.37;59.75;97646.13;5112342;28;20203;-58
2023/08/07 06:18:20;;;;;;;3.50;1.30;;;;;;;24.49;59.84;97649.72;5112417;28;20195;-58
2023/08/07 06:20:46;;;;;;;1.60;1.50;;;;;;;24.63;59.40;97664.56;5112503;28;20207;-57
2023/08/07 06:23:12;;;;;;;1.40;1.30;;;;;;;24.58;59.26;97634.44;5112183;28;20163;-57
2023/08/07 06:25:37;;;;;;;1.20;1.05;;;;;;;24.74;58.12;97645.34;5111863;28;20182;-58
2023/08/07 06:28:03;;;;;;;1.38;1.27;;;;;;;24.98;58.72;97665.78;5112152;28;20541;-57
2023/08/07 06:30:28;;;;;;;1.45;1.40;;;;;;;25.09;57.84;97664.28;5112013;28;20646;-58
2023/08/07 06:32:53;;;;;;;2.50;1.30;;;;;;;25.03;57.72;97647.41;5112103;28;20239;-58
2023/08/07 06:35:19;;;;;;;1.45;1.13;;;;;;;25.09;57.29;97643.88;5111913;28;20182;-58
2023/08/07 06:37:44;;;;;;;1.13;1.13;;;;;;;25.04;57.19;97625.22;5129551;27;20206;-57
2023/08/07 06:40:10;;;;;;;1.90;1.33;;;;;;;25.14;56.63;97628.19;5128609;27;20186;-57
2023/08/07 06:42:35;;;;;;;2.15;1.30;;;;;;;25.18;56.99;97626.72;5128796;27;20178;-58
2023/08/07 06:45:01;;;;;;;2.22;1.30;;;;;;;25.40;56.21;97662.44;5129484;27;20179;-57
2023/08/07 06:47:26;;;;;;;1.00;1.00;;;;;;;25.37;56.75;97665.50;5129715;27;20716;-57
2023/08/07 06:49:51;;;;;;;0.90;0.90;;;;;;;25.20;56.40;97632.59;5129821;27;20246;-58
2023/08/07 06:52:17;;;;;;;2.97;1.42;;;;;;;25.26;56.09;97650.31;5129773;27;20262;-57
2023/08/07 06:54:42;;;;;;;4.47;1.20;;;;;;;25.40;55.91;97667.75;5129715;27;20227;-57
2023/08/07 06:57:08;;;;;;;1.35;1.13;;;;;;;25.43;55.59;97651.41;5129583;27;20277;-57
2023/08/07 06:59:33;;;;;;;2.15;1.10;;;;;;;25.62;55.35;97674.28;5129545;27;20313;-58
2023/08/07 07:01:59;;;;;;;5.43;1.20;;;;;;;25.51;55.34;97642.38;5129673;27;20628;-57
2023/08/07 07:04:24;;;;;;;1.00;1.00;;;;;;;25.60;54.65;97647.19;5122157;27;20304;-58
2023/08/07 07:06:50;;;;;;;1.33;1.20;;;;;;;25.77;53.88;97661.50;5114699;27;20665;-58
2023/08/07 07:09:16;;;;;;;2.47;1.52;;;;;;;25.80;53.96;97653.13;5095484;28;20199;-58
2023/08/07 07:11:43;;;;;;;2.55;1.83;;;;;;;25.86;53.68;97659.38;5090656;28;20176;-58
2023/08/07 07:14:09;;;;;;;1.40;1.40;;;;;;;25.87;53.54;97656.50;5090958;28;20316;-58
2023/08/07 07:16:35;;;;;;;1.50;1.40;;;;;;;25.82;53.76;97666.97;5091001;28;20207;-58
2023/08/07 07:19:01;;;;;;;0.90;0.90;;;;;;;25.89;53.21;97657.09;5090705;28;20203;-58
2023/08/07 07:21:26;;;;;;;2.65;1.27;;;;;;;25.83;52.99;97657.97;5090797;28;20168;-58
2023/08/07 07:23:52;;;;;;;1.50;1.20;;;;;;;25.99;53.18;97683.97;5090799;28;20317;-58
2023/08/07 07:26:17;;;;;;;2.28;1.20;;;;;;;25.95;52.12;97677.47;5090918;28;20633;-58
2023/08/07 07:28:42;;;;;;;1.80;1.20;;;;;;;26.04;51.46;97675.34;5090748;28;20180;-58
2023/08/07 07:31:11;;;;;;;1.35;1.35;;;;;;;26.15;51.91;97686.03;5090810;28;20164;-58
2023/08/07 07:33:38;;;;;;;1.67;1.30;;;;;;;26.16;51.60;97669.09;5090757;28;20176;-57
2023/08/07 07:36:05;;;;;;;3.92;1.27;;;;;;;26.35;49.99;97672.56;5090747;28;20263;-57
2023/08/07 07:38:30;;;;;;;2.33;1.45;;;;;;;26.46;49.93;97699.16;5090666;28;20284;-58
2023/08/07 07:40:56;;;;;;;2.35;1.20;;;;;;;26.46;48.93;97700.97;5090571;28;20259;-57
2023/08/07 07:43:23;;;;;;;1.40;1.38;;;;;;;26.35;48.18;97675.22;5096068;28;20275;-57
2023/08/07 07:45:48;;;;;;;1.50;1.13;;;;;;;26.48;48.54;97699.72;5111024;28;20179;-58
2023/08/07 07:48:13;;;;;;;2.17;1.42;;;;;;;26.53;48.32;97699.88;5111155;28;20202;-58
2023/08/07 07:50:39;;;;;;;1.88;1.15;;;;;;;26.57;46.92;97687.00;5111159;28;20669;-57
2023/08/07 07:53:04;;;;;;;1.30;1.20;;;;;;;26.62;47.08;97705.72;5110994;28;20171;-57
2023/08/07 07:55:30;;;;;;;2.47;1.05;;;;;;;26.54;46.99;97688.25;5110891;28;20175;-58
2023/08/07 07:57:55;;;;;;;2.47;1.30;;;;;;;26.50;46.51;97676.44;5110963;28;20183;-57
2023/08/07 08:00:25;;;;;;;1.35;1.25;;;;;;;26.33;46.56;97679.91;5110969;28;20732;-58
2023/08/07 08:02:51;;;;;;;1.33;1.15;;;;;;;26.51;46.91;97691.34;5111147;28;20260;-57
2023/08/07 08:05:17;;;;;;;1.60;1.50;;;;;;;26.46;46.19;97693.84;5111053;28;20175;-58
2023/08/07 08:07:43;;;;;;;1.38;1.02;;;;;;;26.48;46.27;97681.16;5111069;28;20202;-58
2023/08/07 08:10:08;;;;;;;3.90;1.48;;;;;;;26.55;46.41;97689.91;5110940;28;20228;-58
2023/08/07 08:12:35;;;;;;;3.13;1.42;;;;;;;26.67;45.89;97687.28;5111021;28;20228;-58
2023/08/07 08:15:01;;;;;;;2.65;1.35;;;;;;;26.66;44.81;97713.00;5110936;28;20254;-57
2023/08/07 08:17:27;;;;;;;1.70;1.20;;;;;;;26.56;45.89;97704.78;5110841;28;20171;-58
2023/08/07 08:19:52;;;;;;;3.35;1.20;;;;;;;26.52;46.12;97690.31;5110838;28;20194;-58
2023/08/07 08:22:18;;;;;;;1.05;1.05;;;;;;;26.45;45.75;97684.25;5111854;28;20195;-57
2023/08/07 08:24:44;;;;;;;1.48;1.00;;;;;;;26.61;45.53;97696.16;5114434;28;20267;-58
2023/08/07 08:27:10;;;;;;;2.67;1.30;;;;;;;26.66;46.32;97680.38;5114421;28;20270;-58
2023/08/07 08:29:35;;;;;;;1.30;1.30;;;;;;;26.61;46.35;97675.75;5114461;28;20490;-57
2023/08/07 08:32:00;;;;;;;1.48;1.40;;;;;;;26.65;47.29;97663.63;5114463;28;20284;-58
2023/08/07 08:34:27;;;;;;;1.33;1.33;;;;;;;26.78;46.24;97666.13;5114351;27;20179;-58
2023/08/07 08:36:52;;;;;;;1.23;1.13;;;;;;;26.88;46.37;97678.84;5114395;28;20178;-57
2023/08/07 08:39:17;;;;;;;1.55;1.45;;;;;;;26.83;45.47;97663.56;5114204;28;20190;-58
2023/08/07 08:41:47;;;;;;;1.65;1.55;;;;;;;26.98;44.74;97684.41;5114164;28;20225;-58
2023/08/07 08:44:14;;;;;;;1.65;1.55;;;;;;;26.90;46.04;97655.53;5114226;28;20175;-57
2023/08/07 08:46:42;;;;;;;1.95;1.05;;;;;;;26.96;45.04;97666.06;5114394;28;20183;-58
2023/08/07 08:49:10;;;;;;;3.95;1.35;;;;;;;27.01;45.72;97666.19;5114081;28;20216;-58
2023/08/07 08:51:36;;;;;;;1.52;1.10;;;;;;;27.10;43.67;97677.28;5114076;28;20181;-58
2023/08/07 08:54:03;;;;;;;1.38;1.27;;;;;;;27.18;43.91;97685.00;5114051;28;20269;-58
2023/08/07 08:56:32;;;;;;;1.52;1.48;;;;;;;27.08;44.80;97658.94;5114239;28;20186;-58
2023/08/07 08:58:58;;;;;;;1.40;1.30;;;;;;;27.19;45.10;97666.16;5113778;28;20775;-58
2023/08/07 09:01:25;;;;;;;1.58;1.38;;;;;;;27.30;45.70;97673.34;5113528;28;20217;-57
2023/08/07 09:03:52;;;;;;;2.67;1.55;;;;;;;27.42;45.88;97671.53;5113745;28;20497;-57
2023/08/07 09:06:17;;;;;;;1.73;1.63;;;;;;;27.53;45.03;97675.25;5113599;28;20246;-58
2023/08/07 09:08:43;;;;;;;1.42;1.33;;;;;;;27.55;44.06;97657.19;5113391;28;20211;-57
2023/08/07 09:11:12;;;;;;;1.95;1.35;;;;;;;27.51;44.25;97653.41;5113665;28;20221;-58
2023/08/07 09:13:38;;;;;;;2.28;1.33;;;;;;;27.56;44.28;97650.84;5113281;28;20181;-58
2023/08/07 09:16:08;;;;;;;1.20;1.20;;;;;;;27.59;44.07;97651.19;5113383;27;20562;-58
2023/08/07 09:18:34;;;;;;;1.42;1.33;;;;;;;27.68;43.38;97656.97;5113465;28;20210;-58
2023/08/07 09:20:59;;;;;;;1.00;1.00;;;;;;;27.84;41.88;97673.09;5113424;28;20672;-58
2023/08/07 09:23:25;;;;;;;1.50;1.40;;;;;;;27.74;41.30;97648.06;5113415;28;20179;-58
2023/08/07 09:26:04;;;;;;;1.10;1.00;;;;;;;27.67;41.33;97636.75;5113434;28;20301;-57
2023/08/07 09:28:32;;;;;;;2.20;1.20;;;;;;;27.89;41.65;97667.91;5113274;28;20175;-58
2023/08/07 09:30:59;;;;;;;1.30;1.30;;;;;;;27.90;40.28;97648.22;5113220;28;20175;-58
2023/08/07 09:33:26;;;;;;;3.42;1.13;;;;;;;28.08;40.71;97665.91;5112533;28;20595;-58
2023/08/07 09:35:52;;;;;;;0.98;0.98;;;;;;;28.02;40.15;97651.69;5113120;28;20171;-58
2023/08/07 09:38:17;;;;;;;1.95;1.20;;;;;;;28.13;39.93;97658.03;5113081;27;20351;-58
2023/08/07 09:40:43;;;;;;;1.58;1.20;;;;;;;28.21;40.33;97655.81;5113054;28;20658;-57
2023/08/07 09:43:08;;;;;;;2.90;1.20;;;;;;;28.26;40.81;97647.13;5112979;28;20182;-58
2023/08/07 09:45:36;;;;;;;0.90;0.90;;;;;;;28.34;41.00;97658.22;5112758;28;20163;-58
2023/08/07 09:48:04;;;;;;;1.60;1.30;;;;;;;28.39;40.40;97650.38;5113156;28;20542;-57
2023/08/07 09:50:30;;;;;;;1.17;1.17;;;;;;;28.52;38.97;97657.28;5112850;28;20170;-58
2023/08/07 09:52:57;;;;;;;2.15;1.10;;;;;;;28.48;38.86;97626.84;5112797;28;20210;-58
2023/08/07 09:55:23;;;;;;;1.45;1.10;;;;;;;28.79;38.73;97653.81;5112760;28;20171;-58
2023/08/07 09:57:49;;;;;;;1.20;1.10;;;;;;;28.80;38.69;97639.44;5112487;28;20215;-58
2023/08/07 10:00:15;;;;;;;2.58;1.27;;;;;;;29.04;39.00;97656.97;5112593;28;20652;-58
2023/08/07 10:02:44;;;;;;;1.00;1.00;;;;;;;29.17;39.07;97654.03;5112558;28;20217;-58
2023/08/07 10:05:13;;;;;;;1.10;1.10;;;;;;;29.18;37.92;97634.31;5112514;28;20649;-58
2023/08/07 10:07:39;;;;;;;1.52;1.00;;;;;;;29.41;37.83;97647.50;5112542;28;20677;-58
2023/08/07 10:10:06;;;;;;;1.10;1.10;;;;;;;29.33;37.95;97634.56;5112160;28;20565;-58
2023/08/07 10:12:32;;;;;;;1.00;1.00;;;;;;;29.52;37.78;97659.94;5112417;28;20171;-58
2023/08/07 10:14:59;;;;;;;1.50;1.20;;;;;;;29.39;37.86;97620.25;5112029;28;20167;-58
2023/08/07 10:17:25;;;;;;;0.93;0.93;;;;;;;29.55;37.31;97645.34;5112268;28;20247;-58
2023/08/07 10:19:51;;;;;;;0.98;0.98;;;;;;;29.66;37.52;97650.56;5112281;27;20636;-58
2023/08/07 10:22:19;;;;;;;1.08;1.00;;;;;;;29.77;37.02;97651.53;5112241;28;20175;-58
2023/08/07 10:24:48;;;;;;;1.27;1.20;;;;;;;29.94;36.22;97646.97;5111914;28;20172;-58
2023/08/07 10:27:17;;;;;;;1.42;1.33;;;;;;;29.78;36.51;97637.97;5112116;28;20186;-58
2023/08/07 10:29:47;;;;;;;2.88;1.38;;;;;;;29.73;36.95;97640.53;5112342;28;20182;-58
2023/08/07 10:32:15;;;;;;;2.05;1.17;;;;;;;29.91;35.38;97642.94;5112107;28;20270;-58
2023/08/07 10:34:46;;;;;;;2.08;1.20;;;;;;;29.82;35.76;97600.91;5111926;28;20171;-58
2023/08/07 10:37:34;;;;;;;0.80;0.80;;;;;;;30.20;35.30;97625.75;5112114;28;20270;-58
2023/08/07 10:40:04;;;;;;;1.00;1.00;;;;;;;30.17;35.17;97610.25;5111575;28;20255;-58
2023/08/07 10:42:53;;;;;;;1.10;1.10;;;;;;;30.30;34.96;97612.53;5112201;27;20179;-58
2023/08/07 10:45:22;;;;;;;1.00;1.00;;;;;;;30.37;35.49;97599.78;5088031;28;20273;-58
2023/08/07 10:48:21;;;;;;;1.50;1.10;;;;;;;30.77;34.48;97635.00;5088833;28;20324;-58
2023/08/07 10:50:57;;;;;;;1.30;1.00;;;;;;;31.04;33.80;97638.50;5044739;28;20197;-58
2023/08/07 10:53:31;;;;;;;1.25;1.15;;;;;;;31.31;32.71;97633.94;5048721;28;20678;-58
2023/08/07 10:55:58;;;;;;;1.00;0.90;;;;;;;31.36;32.55;97609.91;5048692;28;20220;-58
2023/08/07 10:58:35;;;;;;;1.20;1.20;;;;;;;31.36;32.25;97620.59;5048523;28;20216;-57
2023/08/07 11:01:19;;;;;;;1.45;1.23;;;;;;;30.97;32.65;97621.84;5048809;28;20195;-57
2023/08/07 11:03:45;;;;;;;1.45;1.00;;;;;;;31.03;33.84;97625.38;5048580;28;20632;-57
2023/08/07 11:06:11;;;;;;;3.22;1.10;;;;;;;31.06;34.57;97625.66;5048415;28;20227;-57
2023/08/07 11:08:37;;;;;;;0.98;0.98;;;;;;;30.95;33.55;97604.47;5048624;28;20217;-57
2023/08/07 11:11:06;;;;;;;1.50;1.13;;;;;;;30.83;33.84;97585.91;5048545;28;20197;-57
2023/08/07 11:13:33;;;;;;;2.78;1.13;;;;;;;30.93;33.25;97604.69;5048572;28;20555;-57
2023/08/07 11:15:59;;;;;;;2.53;1.20;;;;;;;31.24;34.41;97611.16;5048518;28;20583;-57
2023/08/07 11:18:25;;;;;;;1.38;1.02;;;;;;;31.32;33.41;97598.13;5048419;28;20295;-57
2023/08/07 11:20:52;;;;;;;1.83;1.02;;;;;;;31.29;33.28;97571.06;5048468;28;20260;-57
2023/08/07 11:23:23;;;;;;;1.48;1.00;;;;;;;31.43;33.29;97594.44;5106256;28;20240;-57
2023/08/07 11:25:49;;;;;;;2.60;1.20;;;;;;;31.66;33.57;97593.28;5111170;28;20550;-57
2023/08/07 11:28:18;;;;;;;1.50;1.40;;;;;;;31.94;33.20;97593.72;5111301;28;20171;-57
2023/08/07 11:30:44;;;;;;;2.92;1.05;;;;;;;32.14;32.77;97604.56;5111050;28;20597;-59
2023/08/07 11:33:11;;;;;;;1.80;1.10;;;;;;;32.15;31.59;97597.31;5111325;28;20179;-57